Williston, Florida
Current Conditions -  °F | °C
As of 12:50 PM on Sunday 23 Nov 2014 (Local Time) from KOCF Reporting Station
Broken Clouds Broken Clouds  
Wind Chill: 81°   Ceiling: 2600
Heat Index: 84°   Visibility: 10mi
Dew Point: 70°   Wind: 21mph
Humidity: 70%   Direction: 190°S
Pressure: 29.91"   Gusts: NA
Location:  29.39°N, 82.45°W
Report Text: KOCF 231750Z 19018KT 10SM BKN026 27/21 A2991
Loading
Personal Weather Stations






























Interactive Weather Map New forecast layout! Learn more

10-Day Weather Forecast

Advertisements
Track Severe Weather on mobile